Weather at Drietabbetje Airport

Public forecast

Using degrees Celsius for public forecast. Weather courtesy of forecast.io.

Closest aviation weather report (METAR) to Drietabbetje Airport

Closest report is Johan Adolf Pengel International Airport, 86.2 nm (159.7 km) NNW. Retrieved 2020/10/22 20:00 UTC (3 minutes ago):

SMJP 222000Z 04005KT 9999 TS VCSH FEW010 FEW015CB SCT035 30/25 Q1010 NOSIG

Closest aviation forecast (TAF) to Drietabbetje Airport

Closest forecast is Johan Adolf Pengel International Airport, 86.2 nm (159.7 km) NNW. Retrieved 2020/10/22 18:21 UTC (2 hours ago):

TAF TAF SMJP 221600Z 2218/2318 06010KT 9999 SCT030 TX35/2218Z TN23/2309Z PROB40 TEMPO 2218/2222 4000 SHRA TSRA FEW015CB SCT020 BECMG 2223/2301 06005KT PROB30 TEMPO 2309/2310 VRB02KT 4000 BR SCT002 FM231200 10008KT 9999 SCT020